createdAt,value
2022-09-05T00:02:50.943Z,71.02
2022-09-05T00:06:02.427Z,70.88
2022-09-05T00:09:00.772Z,70.48
2022-09-05T00:12:04.983Z,71.04
2022-09-05T00:15:14.517Z,70.57
2022-09-05T00:24:22.750Z,70.62
2022-09-05T00:24:30.777Z,69.59
2022-09-05T00:25:31.709Z,70.69
2022-09-05T00:28:34.215Z,70.03
2022-09-05T00:31:54.175Z,70.74
2022-09-05T00:34:48.130Z,71.55
2022-09-05T00:37:48.304Z,70.51
2022-09-05T00:40:37.156Z,71.02
2022-09-05T00:43:30.103Z,70.26
2022-09-05T00:46:22.841Z,70.82
2022-09-05T00:49:41.012Z,70.33
2022-09-05T00:52:29.040Z,70.55
2022-09-05T00:55:46.017Z,70.47
2022-09-05T00:58:54.024Z,70.73
2022-09-05T01:02:26.051Z,70.56
2022-09-05T01:05:53.016Z,71.18
2022-09-05T01:08:50.684Z,70.49
2022-09-05T01:11:45.130Z,70.89
2022-09-05T01:14:33.752Z,70.62
2022-09-05T01:17:48.407Z,70.53
2022-09-05T01:20:54.019Z,71.17
2022-09-05T01:24:29.750Z,71.63
2022-09-05T01:29:13.273Z,70.85
2022-09-05T01:30:54.872Z,70.63
2022-09-05T01:33:49.186Z,70.65
2022-09-05T01:36:44.844Z,70.57
2022-09-05T01:40:12.374Z,70.49
2022-09-05T01:42:42.143Z,70.23
2022-09-05T01:45:50.642Z,70.44
2022-09-05T01:48:33.487Z,69.67
2022-09-05T01:51:33.872Z,70.58
2022-09-05T01:54:50.400Z,69.35
2022-09-05T01:58:03.787Z,69.44
2022-09-05T02:01:25.465Z,69.05
2022-09-05T02:04:34.871Z,69.78
2022-09-05T02:07:31.145Z,70.03
2022-09-05T02:10:26.763Z,69.48
2022-09-05T02:14:12.855Z,67.41
2022-09-05T02:17:51.546Z,67.55
2022-09-05T02:20:52.070Z,68.30
2022-09-05T02:23:45.722Z,67.40
2022-09-05T02:26:41.866Z,66.20
2022-09-05T02:29:36.387Z,67.42
2022-09-05T02:33:00.004Z,66.78
2022-09-05T02:36:11.160Z,66.93
2022-09-05T02:45:00.456Z,66.64
2022-09-05T02:45:09.523Z,66.42
2022-09-05T02:46:34.936Z,65.27
2022-09-05T02:52:27.610Z,64.78
2022-09-05T02:57:29.587Z,64.63
2022-09-05T02:57:38.791Z,64.39
2022-09-05T03:00:13.310Z,65.43
2022-09-05T03:03:19.880Z,64.05
2022-09-05T03:06:46.712Z,63.57
2022-09-05T03:10:02.853Z,63.04
2022-09-05T03:13:14.852Z,62.70
2022-09-05T03:16:40.519Z,63.14
2022-09-05T03:19:56.090Z,62.98
2022-09-05T03:23:02.317Z,60.31
2022-09-05T03:26:24.103Z,62.46
2022-09-05T03:29:24.144Z,63.52
2022-09-05T03:32:53.076Z,66.09
2022-09-05T03:36:19.120Z,66.57
2022-09-05T03:39:19.836Z,65.41
2022-09-05T03:42:36.979Z,65.27
2022-09-05T03:46:16.127Z,65.20
2022-09-05T03:51:05.036Z,65.43
2022-09-05T03:57:08.399Z,65.25
2022-09-05T03:57:25.812Z,65.30
2022-09-05T03:59:59.856Z,64.90
2022-09-05T04:08:10.246Z,65.09
2022-09-05T04:08:20.442Z,63.38
2022-09-05T04:09:50.035Z,63.26
2022-09-05T04:12:42.850Z,62.77
2022-09-05T04:15:34.155Z,63.31
2022-09-05T04:18:33.085Z,62.60
2022-09-05T04:21:52.116Z,63.77
2022-09-05T04:24:53.111Z,63.19
2022-09-05T04:27:47.522Z,61.35
2022-09-05T04:30:52.085Z,62.26
2022-09-05T04:33:46.389Z,60.92
2022-09-05T04:36:45.853Z,59.59
2022-09-05T04:39:28.455Z,58.62
2022-09-05T04:42:29.087Z,58.75
2022-09-05T04:45:24.486Z,57.31
2022-09-05T04:48:22.260Z,57.07
2022-09-05T04:51:13.389Z,56.18
2022-09-05T04:54:16.851Z,56.63
2022-09-05T04:57:01.140Z,55.98
2022-09-05T05:04:23.749Z,56.66
2022-09-05T05:06:18.351Z,55.63
2022-09-05T05:06:47.112Z,54.88
2022-09-05T05:10:25.549Z,56.11
2022-09-05T05:17:56.337Z,54.94
2022-09-05T05:18:14.520Z,55.79
2022-09-05T05:19:47.316Z,54.67
2022-09-05T05:23:21.751Z,52.27
2022-09-05T05:26:08.486Z,55.21
2022-09-05T05:29:31.013Z,54.69
2022-09-05T05:32:49.002Z,55.42
2022-09-05T05:35:47.964Z,57.28
2022-09-05T05:38:44.008Z,56.78
2022-09-05T05:41:41.033Z,54.36
2022-09-05T05:44:45.093Z,54.68
2022-09-05T05:47:34.393Z,55.15
2022-09-05T05:50:28.853Z,55.80
2022-09-05T05:53:43.532Z,54.49
2022-09-05T05:56:28.987Z,56.17
2022-09-05T05:59:27.021Z,56.35
2022-09-05T06:02:47.234Z,55.85
2022-09-05T06:06:43.105Z,57.45
2022-09-05T06:14:52.832Z,56.19
2022-09-05T06:15:01.325Z,53.71
2022-09-05T06:17:09.004Z,53.02
2022-09-05T06:22:08.551Z,55.38
2022-09-05T06:23:45.096Z,55.48
2022-09-05T06:26:36.413Z,55.84
2022-09-05T06:29:46.969Z,54.76
2022-09-05T06:32:39.035Z,54.09
2022-09-05T06:35:37.139Z,53.30
2022-09-05T06:38:24.927Z,52.87
2022-09-05T06:41:25.141Z,52.89
2022-09-05T06:44:38.365Z,52.43
2022-09-05T06:47:34.201Z,56.15
2022-09-05T06:50:53.231Z,54.37
2022-09-05T06:53:53.023Z,54.57
2022-09-05T06:56:55.384Z,56.25
2022-09-05T07:00:21.916Z,55.11
2022-09-05T07:03:36.331Z,55.02
2022-09-05T07:07:01.984Z,52.92
2022-09-05T07:09:54.140Z,52.40
2022-09-05T07:12:52.010Z,51.38
2022-09-05T07:15:44.785Z,52.65
2022-09-05T07:19:02.628Z,53.24
2022-09-05T07:22:29.538Z,52.02
2022-09-05T07:25:30.329Z,52.17
2022-09-05T07:28:28.704Z,52.86
2022-09-05T07:31:37.605Z,53.32
2022-09-05T07:34:33.993Z,54.10
2022-09-05T07:37:23.207Z,52.86
2022-09-05T07:40:26.007Z,53.69
2022-09-05T07:43:12.903Z,51.84
2022-09-05T07:46:31.000Z,52.94
2022-09-05T07:49:17.190Z,51.59
2022-09-05T07:56:50.435Z,52.20
2022-09-05T07:57:06.273Z,53.07
2022-09-05T07:58:58.795Z,52.49
2022-09-05T08:01:41.275Z,53.47
2022-09-05T08:04:42.185Z,53.11
2022-09-05T08:07:48.971Z,53.75
2022-09-05T08:11:22.394Z,52.36
2022-09-05T08:13:48.232Z,51.74
2022-09-05T08:16:36.924Z,53.60
2022-09-05T08:19:40.107Z,53.65
2022-09-05T08:22:31.799Z,54.64
2022-09-05T08:25:34.991Z,53.24
2022-09-05T08:28:58.881Z,54.15
2022-09-05T08:32:03.753Z,54.18
2022-09-05T08:35:13.866Z,53.96
2022-09-05T08:38:05.906Z,54.08
2022-09-05T08:41:42.973Z,55.43
2022-09-05T08:46:42.012Z,54.45
2022-09-05T08:48:14.921Z,55.16
2022-09-05T08:51:12.189Z,56.00
2022-09-05T08:54:33.886Z,55.54
2022-09-05T08:58:00.013Z,55.55
2022-09-05T09:01:04.521Z,55.53
2022-09-05T09:04:04.493Z,55.16
2022-09-05T09:07:43.696Z,56.35
2022-09-05T09:10:43.403Z,55.88
2022-09-05T09:13:52.104Z,56.87
2022-09-05T09:16:40.005Z,56.76
2022-09-05T09:20:00.143Z,55.64
2022-09-05T09:22:56.348Z,57.51
2022-09-05T09:25:52.844Z,55.86
2022-09-05T09:28:51.452Z,55.33
2022-09-05T09:32:04.749Z,57.52
2022-09-05T09:34:56.293Z,56.27
2022-09-05T09:38:00.107Z,55.63
2022-09-05T09:41:42.920Z,57.34
2022-09-05T09:44:59.750Z,56.11
2022-09-05T09:48:14.879Z,57.73
2022-09-05T09:51:23.877Z,57.72
2022-09-05T09:54:42.177Z,57.54
2022-09-05T09:57:56.038Z,56.32
2022-09-05T10:01:35.367Z,58.13
2022-09-05T10:10:34.484Z,57.74
2022-09-05T10:11:22.735Z,55.25
2022-09-05T10:11:54.670Z,55.21
2022-09-05T10:14:53.405Z,55.51
2022-09-05T10:17:46.746Z,55.54
2022-09-05T10:20:50.968Z,55.57
2022-09-05T10:24:00.066Z,55.86
2022-09-05T10:27:13.155Z,57.06
2022-09-05T10:31:17.439Z,58.77
2022-09-05T10:35:09.288Z,59.04
2022-09-05T10:37:06.175Z,61.09
2022-09-05T10:40:12.856Z,61.26
2022-09-05T10:43:25.043Z,60.92
2022-09-05T10:46:50.320Z,60.07
2022-09-05T10:49:45.884Z,60.12
2022-09-05T10:53:09.559Z,58.42
2022-09-05T10:56:19.069Z,58.79
2022-09-05T11:01:27.626Z,58.22
2022-09-05T11:02:36.746Z,58.05
2022-09-05T11:05:41.906Z,55.79
2022-09-05T11:09:01.850Z,54.92
2022-09-05T11:12:01.108Z,55.26
2022-09-05T11:14:58.777Z,55.25
2022-09-05T11:18:04.647Z,54.96
2022-09-05T11:21:02.833Z,54.38
2022-09-05T11:23:56.840Z,54.61
2022-09-05T11:27:23.474Z,54.87
2022-09-05T11:30:08.446Z,53.14
2022-09-05T11:39:36.454Z,54.94
2022-09-05T11:39:55.602Z,54.92
2022-09-05T11:40:31.052Z,55.01
2022-09-05T11:43:13.394Z,55.59
2022-09-05T11:46:22.877Z,56.11
2022-09-05T11:49:14.123Z,56.84
2022-09-05T11:52:23.886Z,58.03
2022-09-05T11:55:43.130Z,58.23
2022-09-05T11:58:55.929Z,60.36
2022-09-05T12:01:44.087Z,60.59
2022-09-05T12:05:51.165Z,60.69
2022-09-05T12:08:28.883Z,59.94
2022-09-05T12:11:44.109Z,60.96
2022-09-05T12:14:42.419Z,61.10
2022-09-05T12:17:46.105Z,60.85
2022-09-05T12:20:46.005Z,60.69
2022-09-05T12:23:54.039Z,60.00
2022-09-05T12:27:44.850Z,60.72
2022-09-05T12:30:55.037Z,60.48
2022-09-05T12:36:02.662Z,59.48
2022-09-05T12:40:53.800Z,59.38
2022-09-05T12:41:36.422Z,59.49
2022-09-05T12:44:38.220Z,58.35
2022-09-05T12:47:16.999Z,57.91
2022-09-05T12:50:14.059Z,57.96
2022-09-05T12:53:17.086Z,57.04
2022-09-05T12:57:17.239Z,57.52
2022-09-05T13:02:55.314Z,57.75
2022-09-05T13:03:01.533Z,57.54
2022-09-05T13:05:30.998Z,57.08
2022-09-05T13:08:29.012Z,57.81
2022-09-05T13:14:48.530Z,57.49
2022-09-05T13:14:58.076Z,56.77
2022-09-05T13:17:46.156Z,57.19
2022-09-05T13:20:47.186Z,57.96
2022-09-05T13:23:34.415Z,58.89
2022-09-05T13:26:32.076Z,58.25
2022-09-05T13:29:39.906Z,57.00
2022-09-05T13:37:59.202Z,56.71
2022-09-05T13:38:13.078Z,55.52
2022-09-05T13:39:20.054Z,57.64
2022-09-05T13:42:11.378Z,58.32
2022-09-05T13:45:03.803Z,57.76
2022-09-05T13:47:58.050Z,58.22
2022-09-05T13:50:56.078Z,58.03
2022-09-05T13:53:44.838Z,57.41
2022-09-05T13:56:40.381Z,57.87
2022-09-05T13:59:24.082Z,57.25
2022-09-05T14:02:28.304Z,57.03
2022-09-05T14:05:44.910Z,56.73
2022-09-05T14:12:23.737Z,57.32
2022-09-05T14:15:36.808Z,57.44
2022-09-05T14:19:03.315Z,58.07
2022-09-05T14:21:47.005Z,58.02
2022-09-05T14:24:39.996Z,57.98
2022-09-05T14:27:30.351Z,57.12
2022-09-05T14:31:26.531Z,56.79
2022-09-05T14:37:44.745Z,57.04
2022-09-05T14:37:53.461Z,56.13
2022-09-05T14:40:29.807Z,56.98
2022-09-05T14:43:26.934Z,57.82
2022-09-05T14:46:34.169Z,57.28
2022-09-05T14:49:35.790Z,56.87
2022-09-05T14:52:43.701Z,55.90
2022-09-05T14:55:30.466Z,55.43
2022-09-05T15:02:41.334Z,57.75
2022-09-05T15:02:44.503Z,56.57
2022-09-05T15:04:33.370Z,56.93
2022-09-05T15:07:35.545Z,56.07
2022-09-05T15:12:16.061Z,57.22
2022-09-05T15:14:14.155Z,56.41
2022-09-05T15:17:04.804Z,56.10
2022-09-05T15:20:07.575Z,55.21
2022-09-05T15:23:09.864Z,55.34
2022-09-05T15:26:39.093Z,54.33
2022-09-05T15:29:36.129Z,55.74
2022-09-05T15:32:35.043Z,54.29
2022-09-05T15:35:35.123Z,55.11
2022-09-05T15:38:54.936Z,55.12
2022-09-05T15:41:43.101Z,55.51
2022-09-05T15:45:09.083Z,55.73
2022-09-05T15:48:34.113Z,56.41
2022-09-05T15:51:34.304Z,56.49
2022-09-05T15:54:58.883Z,57.12
2022-09-05T15:57:52.038Z,57.44
2022-09-05T16:00:51.823Z,57.86
2022-09-05T16:07:15.067Z,57.53
2022-09-05T16:10:38.255Z,57.47
2022-09-05T16:10:40.129Z,57.59
2022-09-05T16:13:16.663Z,57.58
2022-09-05T16:21:35.649Z,57.69
2022-09-05T16:23:25.119Z,57.33
2022-09-05T16:23:30.449Z,57.70
2022-09-05T16:26:07.467Z,57.74
2022-09-05T16:29:36.222Z,58.02
2022-09-05T16:32:37.635Z,58.15
2022-09-05T16:35:35.197Z,58.61
2022-09-05T16:38:49.763Z,58.44
2022-09-05T16:41:53.416Z,58.44
2022-09-05T16:45:09.643Z,58.05
2022-09-05T16:47:59.279Z,57.61
2022-09-05T16:51:18.331Z,57.33
2022-09-05T16:54:48.244Z,56.82
2022-09-05T16:57:46.049Z,55.98
2022-09-05T17:00:39.215Z,56.03
2022-09-05T17:03:50.546Z,55.27
2022-09-05T17:06:45.802Z,55.06
2022-09-05T17:09:48.650Z,55.21
2022-09-05T17:12:40.040Z,54.75
2022-09-05T17:15:51.918Z,54.76
2022-09-05T17:18:48.726Z,54.25
2022-09-05T17:24:38.688Z,53.78
2022-09-05T17:29:24.827Z,54.25
2022-09-05T17:29:32.173Z,54.22
2022-09-05T17:32:28.933Z,54.74
2022-09-05T17:35:50.188Z,54.21
2022-09-05T17:38:57.163Z,53.97
2022-09-05T17:41:44.518Z,54.60
2022-09-05T17:44:43.444Z,54.63
2022-09-05T17:47:35.529Z,55.17
2022-09-05T17:50:35.300Z,55.33
2022-09-05T17:53:28.954Z,55.24
2022-09-05T17:56:21.008Z,55.99
2022-09-05T17:59:10.783Z,55.83
2022-09-05T18:02:15.202Z,56.94
2022-09-05T18:05:11.251Z,56.88
2022-09-05T18:07:57.765Z,57.04
2022-09-05T18:11:25.281Z,56.80
2022-09-05T18:14:25.070Z,57.01
2022-09-05T18:18:04.148Z,57.25
2022-09-05T18:20:52.033Z,57.66
2022-09-05T18:24:07.961Z,57.50
2022-09-05T18:30:25.114Z,57.36
2022-09-05T18:33:55.515Z,56.84
2022-09-05T18:36:34.225Z,57.95
2022-09-05T18:39:46.209Z,57.72
2022-09-05T18:42:38.164Z,58.33
2022-09-05T18:45:34.147Z,58.25
2022-09-05T18:48:31.378Z,58.56
2022-09-05T18:51:25.169Z,58.65
2022-09-05T18:54:20.305Z,58.95
2022-09-05T18:57:26.409Z,59.04
2022-09-05T19:00:15.150Z,58.43
2022-09-05T19:03:17.143Z,58.70
2022-09-05T19:06:35.751Z,58.20
2022-09-05T19:09:26.678Z,58.31
2022-09-05T19:12:32.137Z,58.05
2022-09-05T19:15:34.087Z,58.35
2022-09-05T19:18:35.186Z,58.27
2022-09-05T19:21:33.162Z,59.06
2022-09-05T19:24:30.368Z,58.82
2022-09-05T19:29:01.338Z,58.92
2022-09-05T19:36:47.436Z,59.91
2022-09-05T19:37:10.872Z,58.72
2022-09-05T19:37:28.865Z,59.11
2022-09-05T19:43:53.999Z,59.58
2022-09-05T19:47:48.901Z,59.12
2022-09-05T19:47:55.699Z,59.28
2022-09-05T19:49:42.464Z,59.74
2022-09-05T19:52:35.212Z,59.43
2022-09-05T19:55:41.067Z,58.78
2022-09-05T19:58:25.807Z,59.73
2022-09-05T20:01:31.223Z,59.27
2022-09-05T20:04:17.644Z,59.40
2022-09-05T20:07:06.132Z,59.42
2022-09-05T20:10:06.099Z,59.67
2022-09-05T20:12:54.496Z,60.92
2022-09-05T20:15:52.143Z,60.89
2022-09-05T20:19:00.630Z,61.03
2022-09-05T20:21:48.934Z,61.00
2022-09-05T20:24:32.967Z,60.79
2022-09-05T20:27:26.949Z,60.48
2022-09-05T20:30:12.957Z,60.86
2022-09-05T20:33:08.101Z,60.76
2022-09-05T20:39:56.204Z,60.85
2022-09-05T20:43:17.274Z,61.51
2022-09-05T20:43:36.698Z,61.38
2022-09-05T20:47:36.548Z,61.64
2022-09-05T20:54:20.151Z,62.04
2022-09-05T20:54:21.142Z,61.99
2022-09-05T20:55:40.010Z,62.24
2022-09-05T20:58:32.886Z,62.50
2022-09-05T21:01:25.126Z,63.10
2022-09-05T21:04:14.866Z,63.58
2022-09-05T21:07:30.030Z,63.37
2022-09-05T21:10:33.321Z,62.14
2022-09-05T21:13:51.971Z,62.96
2022-09-05T21:16:56.953Z,62.88
2022-09-05T21:19:39.432Z,63.39
2022-09-05T21:22:31.984Z,63.19
2022-09-05T21:25:14.208Z,63.63
2022-09-05T21:28:15.012Z,63.23
2022-09-05T21:30:59.972Z,63.72
2022-09-05T21:33:58.572Z,63.57
2022-09-05T21:36:50.568Z,63.74
2022-09-05T21:40:00.514Z,63.91
2022-09-05T21:46:04.582Z,64.15
2022-09-05T21:47:40.993Z,64.48
2022-09-05T21:48:56.708Z,64.52
2022-09-05T21:51:48.256Z,64.42
2022-09-05T21:59:24.481Z,64.79
2022-09-05T21:59:30.627Z,64.88
2022-09-05T22:00:55.016Z,64.29
2022-09-05T22:03:37.427Z,64.79
2022-09-05T22:06:26.129Z,64.89
2022-09-05T22:09:12.959Z,65.19
2022-09-05T22:12:06.079Z,64.53
2022-09-05T22:15:29.233Z,63.99
2022-09-05T22:18:18.267Z,64.26
2022-09-05T22:21:32.490Z,64.35
2022-09-05T22:24:09.461Z,63.99
2022-09-05T22:27:12.690Z,63.79
2022-09-05T22:30:05.114Z,63.91
2022-09-05T22:32:48.446Z,63.67
2022-09-05T22:35:37.042Z,64.05
2022-09-05T22:38:29.124Z,64.08
2022-09-05T22:41:30.071Z,64.37
2022-09-05T22:44:15.785Z,64.95
2022-09-05T22:46:58.437Z,65.17
2022-09-05T22:49:47.044Z,65.22
2022-09-05T22:52:29.342Z,65.44
2022-09-05T22:55:18.023Z,65.60
2022-09-05T22:58:00.378Z,65.33
2022-09-05T23:00:49.137Z,65.17
2022-09-05T23:03:38.412Z,65.26
2022-09-05T23:06:21.048Z,65.15
2022-09-05T23:09:04.725Z,65.39
2022-09-05T23:11:54.029Z,64.70
2022-09-05T23:14:36.373Z,65.43
2022-09-05T23:17:32.019Z,65.10
2022-09-05T23:20:15.520Z,64.77
2022-09-05T23:23:05.161Z,65.22
2022-09-05T23:25:53.412Z,65.24
2022-09-05T23:28:39.455Z,64.73
2022-09-05T23:31:24.457Z,65.19
2022-09-05T23:34:13.096Z,64.73
2022-09-05T23:37:02.557Z,65.13
2022-09-05T23:39:44.187Z,65.07
2022-09-05T23:42:32.420Z,65.32
2022-09-05T23:45:16.094Z,65.47
2022-09-05T23:48:06.715Z,64.97
2022-09-05T23:50:50.139Z,65.08
2022-09-05T23:53:38.398Z,64.14
2022-09-05T23:56:21.037Z,64.73
2022-09-05T23:59:17.129Z,64.20
